sensor_id;sensor_type;location;lat;lon;timestamp;P1;durP1;ratioP1;P2;durP2;ratioP2
85771;SDS011;76212;56.844;41.394;2024-03-22T00:02:09;7.25;;;3.13;;
85771;SDS011;76212;56.844;41.394;2024-03-22T00:04:36;8.02;;;3.33;;
85771;SDS011;76212;56.844;41.394;2024-03-22T00:07:02;9.27;;;3.42;;
85771;SDS011;76212;56.844;41.394;2024-03-22T00:09:29;6.45;;;3.03;;
85771;SDS011;76212;56.844;41.394;2024-03-22T00:11:55;14.95;;;4.50;;
85771;SDS011;76212;56.844;41.394;2024-03-22T00:14:21;22.13;;;4.07;;
85771;SDS011;76212;56.844;41.394;2024-03-22T00:16:48;6.20;;;3.28;;
85771;SDS011;76212;56.844;41.394;2024-03-22T00:19:14;9.13;;;3.15;;
85771;SDS011;76212;56.844;41.394;2024-03-22T00:21:40;7.35;;;3.25;;
85771;SDS011;76212;56.844;41.394;2024-03-22T00:24:07;7.22;;;3.22;;
85771;SDS011;76212;56.844;41.394;2024-03-22T00:26:33;12.93;;;4.68;;
85771;SDS011;76212;56.844;41.394;2024-03-22T00:28:59;7.57;;;3.40;;
85771;SDS011;76212;56.844;41.394;2024-03-22T00:31:25;6.75;;;3.20;;
85771;SDS011;76212;56.844;41.394;2024-03-22T00:33:52;8.63;;;3.65;;
85771;SDS011;76212;56.844;41.394;2024-03-22T00:36:18;7.07;;;3.40;;
85771;SDS011;76212;56.844;41.394;2024-03-22T00:38:45;10.05;;;3.75;;
85771;SDS011;76212;56.844;41.394;2024-03-22T00:41:12;8.27;;;3.53;;
85771;SDS011;76212;56.844;41.394;2024-03-22T00:43:39;4.63;;;3.08;;
85771;SDS011;76212;56.844;41.394;2024-03-22T00:46:05;8.65;;;4.65;;
85771;SDS011;76212;56.844;41.394;2024-03-22T00:48:31;8.40;;;3.17;;
85771;SDS011;76212;56.844;41.394;2024-03-22T00:50:57;8.60;;;3.58;;
85771;SDS011;76212;56.844;41.394;2024-03-22T00:53:24;7.65;;;3.42;;
85771;SDS011;76212;56.844;41.394;2024-03-22T00:55:50;7.63;;;3.08;;
85771;SDS011;76212;56.844;41.394;2024-03-22T00:58:17;8.50;;;3.63;;
85771;SDS011;76212;56.844;41.394;2024-03-22T01:00:45;4.65;;;3.38;;
85771;SDS011;76212;56.844;41.394;2024-03-22T01:03:11;9.13;;;3.78;;
85771;SDS011;76212;56.844;41.394;2024-03-22T01:05:37;9.38;;;3.42;;
85771;SDS011;76212;56.844;41.394;2024-03-22T01:08:05;7.35;;;3.85;;
85771;SDS011;76212;56.844;41.394;2024-03-22T01:10:33;13.93;;;3.65;;
85771;SDS011;76212;56.844;41.394;2024-03-22T01:13:00;6.63;;;3.25;;
85771;SDS011;76212;56.844;41.394;2024-03-22T01:15:26;7.35;;;2.88;;
85771;SDS011;76212;56.844;41.394;2024-03-22T01:17:53;8.68;;;3.40;;
85771;SDS011;76212;56.844;41.394;2024-03-22T01:20:19;6.75;;;3.10;;
85771;SDS011;76212;56.844;41.394;2024-03-22T01:22:46;9.57;;;3.75;;
85771;SDS011;76212;56.844;41.394;2024-03-22T01:25:12;7.32;;;2.95;;
85771;SDS011;76212;56.844;41.394;2024-03-22T01:27:39;6.13;;;3.15;;
85771;SDS011;76212;56.844;41.394;2024-03-22T01:30:05;6.18;;;2.97;;
85771;SDS011;76212;56.844;41.394;2024-03-22T01:32:32;5.35;;;2.80;;
85771;SDS011;76212;56.844;41.394;2024-03-22T01:34:58;6.35;;;3.17;;
85771;SDS011;76212;56.844;41.394;2024-03-22T01:37:24;5.97;;;2.50;;
85771;SDS011;76212;56.844;41.394;2024-03-22T01:39:50;7.30;;;3.30;;
85771;SDS011;76212;56.844;41.394;2024-03-22T01:42:16;8.27;;;3.30;;
85771;SDS011;76212;56.844;41.394;2024-03-22T01:44:43;15.00;;;3.50;;
85771;SDS011;76212;56.844;41.394;2024-03-22T01:47:09;8.00;;;3.15;;
85771;SDS011;76212;56.844;41.394;2024-03-22T01:49:35;11.00;;;3.67;;
85771;SDS011;76212;56.844;41.394;2024-03-22T01:52:02;9.10;;;3.35;;
85771;SDS011;76212;56.844;41.394;2024-03-22T01:54:29;9.32;;;3.92;;
85771;SDS011;76212;56.844;41.394;2024-03-22T01:56:56;12.48;;;3.15;;
85771;SDS011;76212;56.844;41.394;2024-03-22T01:59:22;9.07;;;4.32;;
85771;SDS011;76212;56.844;41.394;2024-03-22T02:01:49;8.13;;;3.70;;
85771;SDS011;76212;56.844;41.394;2024-03-22T02:04:16;10.70;;;3.70;;
85771;SDS011;76212;56.844;41.394;2024-03-22T02:06:42;11.07;;;3.25;;
85771;SDS011;76212;56.844;41.394;2024-03-22T02:09:09;14.30;;;3.95;;
85771;SDS011;76212;56.844;41.394;2024-03-22T02:11:35;7.85;;;3.72;;
85771;SDS011;76212;56.844;41.394;2024-03-22T02:14:05;11.10;;;3.70;;
85771;SDS011;76212;56.844;41.394;2024-03-22T02:16:32;8.30;;;4.22;;
85771;SDS011;76212;56.844;41.394;2024-03-22T02:18:58;13.85;;;3.58;;
85771;SDS011;76212;56.844;41.394;2024-03-22T02:21:24;9.23;;;4.00;;
85771;SDS011;76212;56.844;41.394;2024-03-22T02:23:51;13.05;;;4.32;;
85771;SDS011;76212;56.844;41.394;2024-03-22T02:26:17;13.23;;;4.10;;
85771;SDS011;76212;56.844;41.394;2024-03-22T02:28:43;9.43;;;3.97;;
85771;SDS011;76212;56.844;41.394;2024-03-22T02:31:09;9.82;;;3.72;;
85771;SDS011;76212;56.844;41.394;2024-03-22T02:33:36;9.50;;;4.18;;
85771;SDS011;76212;56.844;41.394;2024-03-22T02:36:02;9.73;;;4.63;;
85771;SDS011;76212;56.844;41.394;2024-03-22T02:38:28;7.88;;;4.32;;
85771;SDS011;76212;56.844;41.394;2024-03-22T02:40:55;12.77;;;4.18;;
85771;SDS011;76212;56.844;41.394;2024-03-22T02:43:23;9.95;;;4.07;;
85771;SDS011;76212;56.844;41.394;2024-03-22T02:45:50;17.90;;;4.38;;
85771;SDS011;76212;56.844;41.394;2024-03-22T02:48:16;8.25;;;4.13;;
85771;SDS011;76212;56.844;41.394;2024-03-22T02:50:43;10.25;;;4.38;;
85771;SDS011;76212;56.844;41.394;2024-03-22T02:53:09;11.68;;;4.80;;
85771;SDS011;76212;56.844;41.394;2024-03-22T02:55:37;15.50;;;5.20;;
85771;SDS011;76212;56.844;41.394;2024-03-22T02:58:04;10.35;;;3.75;;
85771;SDS011;76212;56.844;41.394;2024-03-22T03:00:32;8.50;;;5.28;;
85771;SDS011;76212;56.844;41.394;2024-03-22T03:03:01;11.32;;;4.45;;
85771;SDS011;76212;56.844;41.394;2024-03-22T03:05:28;6.65;;;3.58;;
85771;SDS011;76212;56.844;41.394;2024-03-22T03:07:54;8.40;;;3.47;;
85771;SDS011;76212;56.844;41.394;2024-03-22T03:10:20;8.73;;;3.67;;
85771;SDS011;76212;56.844;41.394;2024-03-22T03:12:47;12.18;;;3.92;;
85771;SDS011;76212;56.844;41.394;2024-03-22T03:15:13;6.63;;;3.40;;
85771;SDS011;76212;56.844;41.394;2024-03-22T03:17:40;7.78;;;3.47;;
85771;SDS011;76212;56.844;41.394;2024-03-22T03:20:06;5.82;;;3.45;;
85771;SDS011;76212;56.844;41.394;2024-03-22T03:22:34;6.72;;;3.83;;
85771;SDS011;76212;56.844;41.394;2024-03-22T03:25:00;7.85;;;3.83;;
85771;SDS011;76212;56.844;41.394;2024-03-22T03:27:27;6.78;;;3.50;;
85771;SDS011;76212;56.844;41.394;2024-03-22T03:29:53;11.35;;;3.72;;
85771;SDS011;76212;56.844;41.394;2024-03-22T03:32:19;17.05;;;4.22;;
85771;SDS011;76212;56.844;41.394;2024-03-22T03:34:46;8.13;;;3.75;;
85771;SDS011;76212;56.844;41.394;2024-03-22T03:37:12;9.05;;;4.68;;
85771;SDS011;76212;56.844;41.394;2024-03-22T03:39:38;8.82;;;3.78;;
85771;SDS011;76212;56.844;41.394;2024-03-22T03:42:04;8.32;;;5.03;;
85771;SDS011;76212;56.844;41.394;2024-03-22T03:44:31;12.57;;;3.63;;
85771;SDS011;76212;56.844;41.394;2024-03-22T03:46:57;15.32;;;4.03;;
85771;SDS011;76212;56.844;41.394;2024-03-22T03:49:23;7.10;;;3.80;;
85771;SDS011;76212;56.844;41.394;2024-03-22T03:51:49;8.60;;;3.40;;
85771;SDS011;76212;56.844;41.394;2024-03-22T03:54:16;9.45;;;3.90;;
85771;SDS011;76212;56.844;41.394;2024-03-22T03:56:42;16.17;;;4.22;;
85771;SDS011;76212;56.844;41.394;2024-03-22T03:59:08;11.13;;;3.42;;
85771;SDS011;76212;56.844;41.394;2024-03-22T04:01:34;8.25;;;3.75;;
85771;SDS011;76212;56.844;41.394;2024-03-22T04:04:02;14.20;;;3.92;;
85771;SDS011;76212;56.844;41.394;2024-03-22T04:06:28;11.07;;;4.05;;
85771;SDS011;76212;56.844;41.394;2024-03-22T04:08:55;9.88;;;4.68;;
85771;SDS011;76212;56.844;41.394;2024-03-22T04:11:21;10.02;;;3.83;;
85771;SDS011;76212;56.844;41.394;2024-03-22T04:13:47;11.85;;;4.80;;
85771;SDS011;76212;56.844;41.394;2024-03-22T04:16:14;9.00;;;4.55;;
85771;SDS011;76212;56.844;41.394;2024-03-22T04:18:40;7.45;;;4.18;;
85771;SDS011;76212;56.844;41.394;2024-03-22T04:21:06;9.32;;;3.63;;
85771;SDS011;76212;56.844;41.394;2024-03-22T04:23:32;10.68;;;4.60;;
85771;SDS011;76212;56.844;41.394;2024-03-22T04:25:59;9.07;;;4.72;;
85771;SDS011;76212;56.844;41.394;2024-03-22T04:28:26;17.70;;;4.75;;
85771;SDS011;76212;56.844;41.394;2024-03-22T04:31:03;12.25;;;4.65;;
85771;SDS011;76212;56.844;41.394;2024-03-22T04:33:31;8.30;;;4.15;;
85771;SDS011;76212;56.844;41.394;2024-03-22T04:35:58;11.27;;;4.00;;
85771;SDS011;76212;56.844;41.394;2024-03-22T04:38:26;8.13;;;3.97;;
85771;SDS011;76212;56.844;41.394;2024-03-22T04:40:53;15.23;;;5.53;;
85771;SDS011;76212;56.844;41.394;2024-03-22T04:43:20;11.75;;;4.35;;
85771;SDS011;76212;56.844;41.394;2024-03-22T04:45:47;12.20;;;4.30;;
85771;SDS011;76212;56.844;41.394;2024-03-22T04:48:17;17.08;;;5.03;;
85771;SDS011;76212;56.844;41.394;2024-03-22T04:50:46;11.20;;;5.82;;
85771;SDS011;76212;56.844;41.394;2024-03-22T04:53:19;14.35;;;5.38;;
85771;SDS011;76212;56.844;41.394;2024-03-22T04:55:50;14.32;;;5.80;;
85771;SDS011;76212;56.844;41.394;2024-03-22T04:58:17;7.95;;;4.13;;
85771;SDS011;76212;56.844;41.394;2024-03-22T05:00:44;9.02;;;4.32;;
85771;SDS011;76212;56.844;41.394;2024-03-22T05:03:11;11.65;;;5.47;;
85771;SDS011;76212;56.844;41.394;2024-03-22T05:05:38;17.30;;;6.60;;
85771;SDS011;76212;56.844;41.394;2024-03-22T05:08:05;10.40;;;5.53;;
85771;SDS011;76212;56.844;41.394;2024-03-22T05:10:33;13.07;;;4.82;;
85771;SDS011;76212;56.844;41.394;2024-03-22T05:12:59;16.90;;;5.55;;
85771;SDS011;76212;56.844;41.394;2024-03-22T05:15:26;19.65;;;6.13;;
85771;SDS011;76212;56.844;41.394;2024-03-22T05:17:53;12.65;;;5.72;;
85771;SDS011;76212;56.844;41.394;2024-03-22T05:20:20;14.05;;;6.10;;
85771;SDS011;76212;56.844;41.394;2024-03-22T05:22:46;11.13;;;5.25;;
85771;SDS011;76212;56.844;41.394;2024-03-22T05:25:14;10.75;;;4.65;;
85771;SDS011;76212;56.844;41.394;2024-03-22T05:27:41;11.80;;;5.50;;
85771;SDS011;76212;56.844;41.394;2024-03-22T05:30:08;13.70;;;5.68;;
85771;SDS011;76212;56.844;41.394;2024-03-22T05:32:35;26.55;;;7.45;;
85771;SDS011;76212;56.844;41.394;2024-03-22T05:35:02;17.35;;;6.03;;
85771;SDS011;76212;56.844;41.394;2024-03-22T05:37:28;13.48;;;6.10;;
85771;SDS011;76212;56.844;41.394;2024-03-22T05:39:54;14.45;;;6.97;;
85771;SDS011;76212;56.844;41.394;2024-03-22T05:42:21;13.43;;;6.25;;
85771;SDS011;76212;56.844;41.394;2024-03-22T05:44:47;17.27;;;6.30;;
85771;SDS011;76212;56.844;41.394;2024-03-22T05:47:14;10.75;;;5.88;;
85771;SDS011;76212;56.844;41.394;2024-03-22T05:49:40;18.27;;;6.47;;
85771;SDS011;76212;56.844;41.394;2024-03-22T05:52:06;13.73;;;6.32;;
85771;SDS011;76212;56.844;41.394;2024-03-22T05:54:33;12.13;;;6.40;;
85771;SDS011;76212;56.844;41.394;2024-03-22T05:56:59;15.55;;;6.00;;
85771;SDS011;76212;56.844;41.394;2024-03-22T05:59:26;14.90;;;5.80;;
85771;SDS011;76212;56.844;41.394;2024-03-22T06:01:53;17.00;;;8.00;;
85771;SDS011;76212;56.844;41.394;2024-03-22T06:04:19;14.95;;;6.43;;
85771;SDS011;76212;56.844;41.394;2024-03-22T06:06:45;14.48;;;6.72;;
85771;SDS011;76212;56.844;41.394;2024-03-22T06:09:12;13.02;;;6.18;;
85771;SDS011;76212;56.844;41.394;2024-03-22T06:11:39;28.17;;;8.65;;
85771;SDS011;76212;56.844;41.394;2024-03-22T06:14:09;16.02;;;7.28;;
85771;SDS011;76212;56.844;41.394;2024-03-22T06:16:36;15.50;;;7.07;;
85771;SDS011;76212;56.844;41.394;2024-03-22T06:19:02;17.33;;;7.70;;
85771;SDS011;76212;56.844;41.394;2024-03-22T06:21:29;14.82;;;7.53;;
85771;SDS011;76212;56.844;41.394;2024-03-22T06:23:55;14.25;;;6.70;;
85771;SDS011;76212;56.844;41.394;2024-03-22T06:26:21;14.00;;;5.93;;
85771;SDS011;76212;56.844;41.394;2024-03-22T06:28:48;12.82;;;6.43;;
85771;SDS011;76212;56.844;41.394;2024-03-22T06:31:14;14.88;;;6.65;;
85771;SDS011;76212;56.844;41.394;2024-03-22T06:33:40;13.63;;;6.82;;
85771;SDS011;76212;56.844;41.394;2024-03-22T06:36:07;17.40;;;7.47;;
85771;SDS011;76212;56.844;41.394;2024-03-22T06:38:34;18.35;;;9.07;;
85771;SDS011;76212;56.844;41.394;2024-03-22T06:41:00;13.85;;;6.20;;
85771;SDS011;76212;56.844;41.394;2024-03-22T06:43:26;13.98;;;7.20;;
85771;SDS011;76212;56.844;41.394;2024-03-22T06:45:53;9.98;;;5.85;;
85771;SDS011;76212;56.844;41.394;2024-03-22T06:48:19;18.90;;;6.57;;
85771;SDS011;76212;56.844;41.394;2024-03-22T06:50:45;10.82;;;6.40;;
85771;SDS011;76212;56.844;41.394;2024-03-22T06:53:11;15.85;;;6.55;;
85771;SDS011;76212;56.844;41.394;2024-03-22T06:55:38;18.58;;;6.45;;
85771;SDS011;76212;56.844;41.394;2024-03-22T06:58:04;13.63;;;6.80;;
85771;SDS011;76212;56.844;41.394;2024-03-22T07:00:31;15.98;;;5.70;;
85771;SDS011;76212;56.844;41.394;2024-03-22T07:03:01;13.90;;;5.70;;
85771;SDS011;76212;56.844;41.394;2024-03-22T07:05:28;17.58;;;6.18;;
85771;SDS011;76212;56.844;41.394;2024-03-22T07:07:55;13.55;;;5.85;;
85771;SDS011;76212;56.844;41.394;2024-03-22T07:10:23;13.13;;;6.07;;
85771;SDS011;76212;56.844;41.394;2024-03-22T07:12:56;17.23;;;6.95;;
85771;SDS011;76212;56.844;41.394;2024-03-22T07:15:23;13.57;;;6.22;;
85771;SDS011;76212;56.844;41.394;2024-03-22T07:17:49;13.77;;;7.53;;
85771;SDS011;76212;56.844;41.394;2024-03-22T07:20:17;14.20;;;6.55;;
85771;SDS011;76212;56.844;41.394;2024-03-22T07:22:44;12.75;;;6.28;;
85771;SDS011;76212;56.844;41.394;2024-03-22T07:25:11;10.40;;;5.82;;
85771;SDS011;76212;56.844;41.394;2024-03-22T07:27:37;15.13;;;7.30;;
85771;SDS011;76212;56.844;41.394;2024-03-22T07:30:04;12.52;;;5.60;;
85771;SDS011;76212;56.844;41.394;2024-03-22T07:32:31;15.07;;;7.72;;
85771;SDS011;76212;56.844;41.394;2024-03-22T07:34:57;17.83;;;6.43;;
85771;SDS011;76212;56.844;41.394;2024-03-22T07:37:24;11.13;;;5.93;;
85771;SDS011;76212;56.844;41.394;2024-03-22T07:39:50;15.30;;;8.40;;
85771;SDS011;76212;56.844;41.394;2024-03-22T07:42:16;12.43;;;5.80;;
85771;SDS011;76212;56.844;41.394;2024-03-22T07:44:43;13.98;;;6.60;;
85771;SDS011;76212;56.844;41.394;2024-03-22T07:47:11;12.05;;;6.85;;
85771;SDS011;76212;56.844;41.394;2024-03-22T07:49:38;12.15;;;5.53;;
85771;SDS011;76212;56.844;41.394;2024-03-22T07:52:04;21.45;;;7.55;;
85771;SDS011;76212;56.844;41.394;2024-03-22T07:54:31;15.65;;;5.55;;
85771;SDS011;76212;56.844;41.394;2024-03-22T07:56:58;9.45;;;5.15;;
85771;SDS011;76212;56.844;41.394;2024-03-22T07:59:24;15.98;;;6.57;;
85771;SDS011;76212;56.844;41.394;2024-03-22T08:01:51;13.75;;;6.07;;
85771;SDS011;76212;56.844;41.394;2024-03-22T08:04:17;16.40;;;4.65;;
85771;SDS011;76212;56.844;41.394;2024-03-22T08:06:43;13.77;;;4.82;;
85771;SDS011;76212;56.844;41.394;2024-03-22T08:09:09;15.48;;;5.82;;
85771;SDS011;76212;56.844;41.394;2024-03-22T08:11:36;8.48;;;4.78;;
85771;SDS011;76212;56.844;41.394;2024-03-22T08:14:02;12.85;;;6.20;;
85771;SDS011;76212;56.844;41.394;2024-03-22T08:16:29;9.52;;;5.32;;
85771;SDS011;76212;56.844;41.394;2024-03-22T08:18:56;9.82;;;5.38;;
85771;SDS011;76212;56.844;41.394;2024-03-22T08:21:23;13.23;;;5.90;;
85771;SDS011;76212;56.844;41.394;2024-03-22T08:23:50;11.13;;;5.10;;
85771;SDS011;76212;56.844;41.394;2024-03-22T08:26:17;12.27;;;6.05;;
85771;SDS011;76212;56.844;41.394;2024-03-22T08:28:47;11.57;;;5.20;;
85771;SDS011;76212;56.844;41.394;2024-03-22T08:31:14;11.57;;;6.10;;
85771;SDS011;76212;56.844;41.394;2024-03-22T08:33:40;11.23;;;5.43;;
85771;SDS011;76212;56.844;41.394;2024-03-22T08:36:07;10.88;;;5.28;;
85771;SDS011;76212;56.844;41.394;2024-03-22T08:38:33;9.40;;;5.50;;
85771;SDS011;76212;56.844;41.394;2024-03-22T08:40:59;11.13;;;5.93;;
85771;SDS011;76212;56.844;41.394;2024-03-22T08:43:26;11.13;;;5.57;;
85771;SDS011;76212;56.844;41.394;2024-03-22T08:45:53;11.52;;;6.93;;
85771;SDS011;76212;56.844;41.394;2024-03-22T08:48:20;11.73;;;5.68;;
85771;SDS011;76212;56.844;41.394;2024-03-22T08:50:46;12.25;;;6.82;;
85771;SDS011;76212;56.844;41.394;2024-03-22T08:53:12;12.90;;;6.07;;
85771;SDS011;76212;56.844;41.394;2024-03-22T08:55:44;12.25;;;6.80;;
85771;SDS011;76212;56.844;41.394;2024-03-22T08:58:12;10.43;;;5.75;;
85771;SDS011;76212;56.844;41.394;2024-03-22T09:00:46;10.82;;;5.80;;
85771;SDS011;76212;56.844;41.394;2024-03-22T09:03:13;12.32;;;6.47;;
85771;SDS011;76212;56.844;41.394;2024-03-22T09:05:40;13.43;;;6.78;;
85771;SDS011;76212;56.844;41.394;2024-03-22T09:08:07;12.90;;;5.93;;
85771;SDS011;76212;56.844;41.394;2024-03-22T09:10:34;16.05;;;6.60;;
85771;SDS011;76212;56.844;41.394;2024-03-22T09:13:00;15.57;;;6.18;;
85771;SDS011;76212;56.844;41.394;2024-03-22T09:15:27;15.07;;;6.35;;
85771;SDS011;76212;56.844;41.394;2024-03-22T09:17:53;13.10;;;6.47;;
85771;SDS011;76212;56.844;41.394;2024-03-22T09:20:19;12.75;;;6.47;;
85771;SDS011;76212;56.844;41.394;2024-03-22T09:22:46;12.27;;;5.97;;
85771;SDS011;76212;56.844;41.394;2024-03-22T09:25:12;15.20;;;6.70;;
85771;SDS011;76212;56.844;41.394;2024-03-22T09:27:38;11.45;;;6.45;;
85771;SDS011;76212;56.844;41.394;2024-03-22T09:30:05;14.63;;;6.78;;
85771;SDS011;76212;56.844;41.394;2024-03-22T09:32:32;13.00;;;7.18;;
85771;SDS011;76212;56.844;41.394;2024-03-22T09:34:58;17.65;;;8.02;;
85771;SDS011;76212;56.844;41.394;2024-03-22T09:37:24;14.90;;;6.78;;
85771;SDS011;76212;56.844;41.394;2024-03-22T09:39:50;16.98;;;6.75;;
85771;SDS011;76212;56.844;41.394;2024-03-22T09:42:17;15.88;;;6.50;;
85771;SDS011;76212;56.844;41.394;2024-03-22T09:44:49;10.85;;;5.55;;
85771;SDS011;76212;56.844;41.394;2024-03-22T09:47:17;16.85;;;6.28;;
85771;SDS011;76212;56.844;41.394;2024-03-22T09:49:46;13.52;;;5.88;;
85771;SDS011;76212;56.844;41.394;2024-03-22T09:52:15;14.48;;;6.00;;
85771;SDS011;76212;56.844;41.394;2024-03-22T09:54:45;11.80;;;6.43;;
85771;SDS011;76212;56.844;41.394;2024-03-22T09:57:13;18.73;;;6.53;;
85771;SDS011;76212;56.844;41.394;2024-03-22T09:59:43;13.07;;;6.65;;
85771;SDS011;76212;56.844;41.394;2024-03-22T10:02:13;13.23;;;6.57;;
85771;SDS011;76212;56.844;41.394;2024-03-22T10:04:40;12.90;;;6.70;;
85771;SDS011;76212;56.844;41.394;2024-03-22T10:07:07;12.43;;;6.72;;
85771;SDS011;76212;56.844;41.394;2024-03-22T10:09:35;11.15;;;6.38;;
85771;SDS011;76212;56.844;41.394;2024-03-22T10:12:02;16.63;;;7.25;;
85771;SDS011;76212;56.844;41.394;2024-03-22T10:14:29;12.52;;;6.22;;
85771;SDS011;76212;56.844;41.394;2024-03-22T10:16:57;13.93;;;7.25;;
85771;SDS011;76212;56.844;41.394;2024-03-22T10:19:24;13.23;;;6.28;;
85771;SDS011;76212;56.844;41.394;2024-03-22T10:22:08;13.48;;;6.63;;
85771;SDS011;76212;56.844;41.394;2024-03-22T10:24:34;14.25;;;7.18;;
85771;SDS011;76212;56.844;41.394;2024-03-22T10:27:01;14.23;;;7.40;;
85771;SDS011;76212;56.844;41.394;2024-03-22T10:29:27;12.40;;;7.25;;
85771;SDS011;76212;56.844;41.394;2024-03-22T10:31:54;15.20;;;7.28;;
85771;SDS011;76212;56.844;41.394;2024-03-22T10:34:21;15.05;;;6.75;;
85771;SDS011;76212;56.844;41.394;2024-03-22T10:36:48;13.13;;;8.30;;
85771;SDS011;76212;56.844;41.394;2024-03-22T10:39:18;12.27;;;7.18;;
85771;SDS011;76212;56.844;41.394;2024-03-22T10:41:45;11.23;;;6.88;;
85771;SDS011;76212;56.844;41.394;2024-03-22T10:44:14;14.50;;;7.15;;
85771;SDS011;76212;56.844;41.394;2024-03-22T10:46:47;8.45;;;5.95;;
85771;SDS011;76212;56.844;41.394;2024-03-22T10:49:20;11.55;;;5.82;;
85771;SDS011;76212;56.844;41.394;2024-03-22T10:51:59;10.00;;;4.78;;
85771;SDS011;76212;56.844;41.394;2024-03-22T10:54:28;8.55;;;5.20;;
85771;SDS011;76212;56.844;41.394;2024-03-22T10:57:00;7.38;;;5.05;;
85771;SDS011;76212;56.844;41.394;2024-03-22T10:59:27;10.75;;;4.05;;
85771;SDS011;76212;56.844;41.394;2024-03-22T11:02:02;9.23;;;4.45;;
85771;SDS011;76212;56.844;41.394;2024-03-22T11:04:30;7.55;;;4.20;;
85771;SDS011;76212;56.844;41.394;2024-03-22T11:06:56;8.77;;;3.20;;
85771;SDS011;76212;56.844;41.394;2024-03-22T11:09:26;8.98;;;4.32;;
85771;SDS011;76212;56.844;41.394;2024-03-22T11:11:53;7.38;;;4.13;;
85771;SDS011;76212;56.844;41.394;2024-03-22T11:14:21;8.68;;;4.15;;
85771;SDS011;76212;56.844;41.394;2024-03-22T11:16:49;7.95;;;4.18;;
85771;SDS011;76212;56.844;41.394;2024-03-22T11:19:16;8.35;;;4.03;;
85771;SDS011;76212;56.844;41.394;2024-03-22T11:21:42;10.45;;;3.30;;
85771;SDS011;76212;56.844;41.394;2024-03-22T11:24:08;6.82;;;3.47;;
85771;SDS011;76212;56.844;41.394;2024-03-22T11:26:36;5.75;;;3.40;;
85771;SDS011;76212;56.844;41.394;2024-03-22T11:29:03;6.30;;;3.70;;
85771;SDS011;76212;56.844;41.394;2024-03-22T11:31:29;7.53;;;3.08;;
85771;SDS011;76212;56.844;41.394;2024-03-22T11:33:56;6.32;;;3.25;;
85771;SDS011;76212;56.844;41.394;2024-03-22T11:36:23;7.80;;;3.92;;
85771;SDS011;76212;56.844;41.394;2024-03-22T11:38:50;8.43;;;4.03;;
85771;SDS011;76212;56.844;41.394;2024-03-22T11:41:26;8.30;;;3.90;;
85771;SDS011;76212;56.844;41.394;2024-03-22T11:43:55;7.13;;;3.50;;
85771;SDS011;76212;56.844;41.394;2024-03-22T11:46:23;5.43;;;3.10;;
85771;SDS011;76212;56.844;41.394;2024-03-22T11:48:54;12.05;;;3.40;;
85771;SDS011;76212;56.844;41.394;2024-03-22T11:51:20;8.63;;;3.20;;
85771;SDS011;76212;56.844;41.394;2024-03-22T11:53:48;7.47;;;2.78;;
85771;SDS011;76212;56.844;41.394;2024-03-22T11:56:17;6.63;;;3.58;;
85771;SDS011;76212;56.844;41.394;2024-03-22T11:58:45;8.23;;;3.65;;
85771;SDS011;76212;56.844;41.394;2024-03-22T12:01:15;7.45;;;2.92;;
85771;SDS011;76212;56.844;41.394;2024-03-22T12:03:45;7.03;;;3.80;;
85771;SDS011;76212;56.844;41.394;2024-03-22T12:06:17;5.97;;;3.78;;
85771;SDS011;76212;56.844;41.394;2024-03-22T12:08:43;6.03;;;2.60;;
85771;SDS011;76212;56.844;41.394;2024-03-22T12:11:10;7.60;;;2.40;;
85771;SDS011;76212;56.844;41.394;2024-03-22T12:13:37;4.95;;;2.83;;
85771;SDS011;76212;56.844;41.394;2024-03-22T12:16:04;4.82;;;2.55;;
85771;SDS011;76212;56.844;41.394;2024-03-22T12:18:31;8.43;;;3.38;;
85771;SDS011;76212;56.844;41.394;2024-03-22T12:20:57;5.57;;;3.17;;
85771;SDS011;76212;56.844;41.394;2024-03-22T12:23:24;7.10;;;3.33;;
85771;SDS011;76212;56.844;41.394;2024-03-22T12:25:51;7.38;;;3.40;;
85771;SDS011;76212;56.844;41.394;2024-03-22T12:28:18;7.43;;;3.30;;
85771;SDS011;76212;56.844;41.394;2024-03-22T12:30:46;7.85;;;3.05;;
85771;SDS011;76212;56.844;41.394;2024-03-22T12:33:14;5.78;;;3.30;;
85771;SDS011;76212;56.844;41.394;2024-03-22T12:35:40;4.90;;;2.47;;
85771;SDS011;76212;56.844;41.394;2024-03-22T12:38:07;6.15;;;2.97;;
85771;SDS011;76212;56.844;41.394;2024-03-22T12:40:36;10.98;;;3.65;;
85771;SDS011;76212;56.844;41.394;2024-03-22T12:43:04;6.28;;;2.72;;
85771;SDS011;76212;56.844;41.394;2024-03-22T12:45:31;7.22;;;2.97;;
85771;SDS011;76212;56.844;41.394;2024-03-22T12:48:00;3.67;;;2.10;;
85771;SDS011;76212;56.844;41.394;2024-03-22T12:50:27;4.07;;;1.95;;
85771;SDS011;76212;56.844;41.394;2024-03-22T12:52:54;4.00;;;1.70;;
85771;SDS011;76212;56.844;41.394;2024-03-22T12:55:20;4.25;;;2.10;;
85771;SDS011;76212;56.844;41.394;2024-03-22T12:57:46;4.57;;;2.10;;
85771;SDS011;76212;56.844;41.394;2024-03-22T13:00:13;3.72;;;1.60;;
85771;SDS011;76212;56.844;41.394;2024-03-22T13:02:44;3.20;;;1.83;;
85771;SDS011;76212;56.844;41.394;2024-03-22T13:05:11;4.57;;;2.30;;
85771;SDS011;76212;56.844;41.394;2024-03-22T13:07:38;3.92;;;2.28;;
85771;SDS011;76212;56.844;41.394;2024-03-22T13:10:05;4.88;;;2.60;;
85771;SDS011;76212;56.844;41.394;2024-03-22T13:12:32;3.83;;;2.03;;
85771;SDS011;76212;56.844;41.394;2024-03-22T13:15:03;6.13;;;2.10;;
85771;SDS011;76212;56.844;41.394;2024-03-22T13:17:30;2.13;;;1.38;;
85771;SDS011;76212;56.844;41.394;2024-03-22T13:19:57;3.53;;;2.17;;
85771;SDS011;76212;56.844;41.394;2024-03-22T13:22:23;7.43;;;1.88;;
85771;SDS011;76212;56.844;41.394;2024-03-22T13:24:49;6.32;;;2.97;;
85771;SDS011;76212;56.844;41.394;2024-03-22T13:27:16;12.93;;;3.67;;
85771;SDS011;76212;56.844;41.394;2024-03-22T13:29:43;4.63;;;2.00;;
85771;SDS011;76212;56.844;41.394;2024-03-22T13:32:09;6.47;;;2.78;;
85771;SDS011;76212;56.844;41.394;2024-03-22T13:34:36;3.65;;;2.10;;
85771;SDS011;76212;56.844;41.394;2024-03-22T13:37:04;4.53;;;2.60;;
85771;SDS011;76212;56.844;41.394;2024-03-22T13:39:32;4.00;;;2.22;;
85771;SDS011;76212;56.844;41.394;2024-03-22T13:41:58;4.97;;;2.78;;
85771;SDS011;76212;56.844;41.394;2024-03-22T13:44:24;3.65;;;1.85;;
85771;SDS011;76212;56.844;41.394;2024-03-22T13:46:51;2.95;;;1.50;;
85771;SDS011;76212;56.844;41.394;2024-03-22T13:49:18;4.40;;;2.28;;
85771;SDS011;76212;56.844;41.394;2024-03-22T13:51:49;4.47;;;1.63;;
85771;SDS011;76212;56.844;41.394;2024-03-22T13:54:15;2.63;;;1.75;;
85771;SDS011;76212;56.844;41.394;2024-03-22T13:56:42;5.85;;;2.17;;
85771;SDS011;76212;56.844;41.394;2024-03-22T13:59:09;3.88;;;1.80;;
85771;SDS011;76212;56.844;41.394;2024-03-22T14:01:36;5.82;;;2.42;;
85771;SDS011;76212;56.844;41.394;2024-03-22T14:04:03;7.90;;;3.22;;
85771;SDS011;76212;56.844;41.394;2024-03-22T14:06:30;11.98;;;4.53;;
85771;SDS011;76212;56.844;41.394;2024-03-22T14:08:58;11.35;;;3.67;;
85771;SDS011;76212;56.844;41.394;2024-03-22T14:11:30;7.22;;;2.60;;
85771;SDS011;76212;56.844;41.394;2024-03-22T14:13:57;2.78;;;1.90;;
85771;SDS011;76212;56.844;41.394;2024-03-22T14:16:23;9.30;;;2.00;;
85771;SDS011;76212;56.844;41.394;2024-03-22T14:18:50;6.47;;;2.10;;
85771;SDS011;76212;56.844;41.394;2024-03-22T14:21:17;4.75;;;1.90;;
85771;SDS011;76212;56.844;41.394;2024-03-22T14:23:47;6.40;;;2.15;;
85771;SDS011;76212;56.844;41.394;2024-03-22T14:26:15;4.65;;;2.03;;
85771;SDS011;76212;56.844;41.394;2024-03-22T14:28:42;6.50;;;2.30;;